Durango, Iowa
Current Conditions -  °F | °C
As of 2:53 PM on Friday 19 Dec 2014 (Local Time) from KDBQ Reporting Station
Overcast Overcast  
Wind Chill: 21°   Ceiling: 2700
Heat Index: 28°   Visibility: 9mi
Dew Point: 21°   Wind: 7mph
Humidity: 75%   Direction: 240°WSW
Pressure: 30.26"   Gusts: NA
Location:  42.56°N, 90.78°W
Report Text: KDBQ 192053Z 24006KT 9SM OVC027 M02/M06 A3026 RMK AO2 SLP262 T10221061 55006
Loading
Personal Weather Stations






























Interactive Weather Map New forecast layout! Learn more

10-Day Weather Forecast

Advertisements
Track Severe Weather on mobile